Terminal Aerodrome Forecast
Issued by NWS Binghamton, NY

Home | Current Version | Previous Version | Text Only | Print | Product List | Glossary On
Versions: 1 2 3 4 5 6 7 8 9 10 11 12 13 14 15 16 17 18 19 20 21 22
614
FTUS41 KBGM 122334
TAFSYR
TAF
KSYR 122334Z 1300/1324 20010KT P6SM BKN080
     FM130200 25010KT 3SM -SHSN OVC040
      TEMPO 1303/1306 1SM -SHSN OVC025
     FM130600 28015G25KT 1 1/2SM -SN BLSN OVC025
      TEMPO 1306/1310 1/4SM +SN OVC015
     FM132200 30015G25KT P6SM OVC025=

USA.gov is the U.S. government's official web portal to all federal, state and local government web resources and services.